Time;durP1;ratioP1;P1;durP2;ratioP2;P2;SDS_P1;SDS_P2;PMS_P1;PMS_P2;Temp;Humidity;BMP_temperature;BMP_pressure;BME280_temperature;BME280_humidity;BME280_pressure;Samples;Min_cycle;Max_cycle;Signal;HPM_P1;HPM_P2
2021/04/06 00:01:22;;;;;;;8.30;1.10;;;;;;;;;;5017861;28;20654;-69
2021/04/06 00:03:50;;;;;;;9.00;1.00;;;;;;;;;;5029425;28;20217;-69
2021/04/06 00:06:16;;;;;;;6.10;1.20;;;;;;;;;;5016182;28;20189;-67
2021/04/06 00:08:42;;;;;;;7.37;1.17;;;;;;;;;;5025406;28;20178;-68
2021/04/06 00:11:10;;;;;;;7.43;1.10;;;;;;;;;;5016130;28;20204;-68
2021/04/06 00:13:37;;;;;;;7.27;0.77;;;;;;;;;;5029950;28;20188;-68
2021/04/06 00:16:04;;;;;;;8.10;0.80;;;;;;;;;;5016256;28;20201;-69
2021/04/06 00:18:31;;;;;;;5.27;0.77;;;;;;;;;;5027677;28;20182;-68
2021/04/06 00:20:59;;;;;;;9.27;1.00;;;;;;;;;;5019207;28;20198;-69
2021/04/06 00:23:26;;;;;;;7.27;1.07;;;;;;;;;;5027032;28;21298;-69
2021/04/06 00:25:52;;;;;;;6.60;1.33;;;;;;;;;;5027933;28;23737;-69
2021/04/06 00:28:24;;;;;;;7.07;1.30;;;;;;;;;;5021205;28;20229;-69
2021/04/06 00:30:54;;;;;;;8.07;1.23;;;;;;;;;;5026553;28;20185;-69
2021/04/06 00:33:32;;;;;;;12.50;1.53;;;;;;;;;;5019191;28;20186;-68
2021/04/06 00:36:01;;;;;;;8.83;1.10;;;;;;;;;;5026912;28;20242;-67
2021/04/06 00:38:30;;;;;;;10.93;1.67;;;;;;;;;;5018524;28;20281;-68
2021/04/06 00:41:00;;;;;;;14.07;2.40;;;;;;;;;;5027824;28;20243;-68
2021/04/06 00:43:38;;;;;;;12.10;2.20;;;;;;;;;;5015149;28;20207;-68
2021/04/06 00:46:08;;;;;;;9.63;2.10;;;;;;;;;;5026106;28;20227;-67
2021/04/06 00:48:33;;;;;;;11.70;2.50;;;;;;;;;;5019921;28;20689;-68
2021/04/06 00:51:19;;;;;;;10.53;1.63;;;;;;;;;;5026538;28;20324;-68
2021/04/06 00:53:51;;;;;;;15.10;2.10;;;;;;;;;;5018914;28;20640;-68
2021/04/06 00:56:17;;;;;;;12.97;1.60;;;;;;;;;;5025479;28;20194;-69
2021/04/06 00:58:43;;;;;;;7.97;1.87;;;;;;;;;;5018842;28;20479;-69
2021/04/06 01:01:10;;;;;;;16.90;1.87;;;;;;;;;;5026317;28;20197;-68
2021/04/06 01:03:37;;;;;;;9.97;1.53;;;;;;;;;;5026004;28;20669;-69
2021/04/06 01:06:02;;;;;;;8.43;1.43;;;;;;;;;;5023218;28;20325;-68
2021/04/06 01:08:46;;;;;;;14.27;1.70;;;;;;;;;;5017220;28;20691;-68
2021/04/06 01:11:11;;;;;;;6.70;1.00;;;;;;;;;;5024158;28;20255;-68
2021/04/06 01:13:37;;;;;;;9.93;1.60;;;;;;;;;;5016241;28;20193;-68
2021/04/06 01:16:03;;;;;;;10.13;1.67;;;;;;;;;;5024764;28;20284;-69
2021/04/06 01:18:29;;;;;;;11.27;2.13;;;;;;;;;;5024628;28;20212;-67
2021/04/06 01:20:55;;;;;;;10.47;2.20;;;;;;;;;;5015466;28;20224;-68
2021/04/06 01:23:21;;;;;;;12.50;2.40;;;;;;;;;;5022492;28;20701;-68
2021/04/06 01:25:53;;;;;;;5.77;1.43;;;;;;;;;;5014515;28;20692;-68
2021/04/06 01:28:19;;;;;;;14.17;1.93;;;;;;;;;;5024517;28;20199;-68
2021/04/06 01:30:46;;;;;;;10.77;1.63;;;;;;;;;;5015119;28;20220;-68
2021/04/06 01:33:13;;;;;;;9.70;1.87;;;;;;;;;;5024376;28;21262;-68
2021/04/06 01:35:46;;;;;;;10.07;1.40;;;;;;;;;;5016952;28;20178;-68
2021/04/06 01:38:13;;;;;;;9.73;1.40;;;;;;;;;;5022313;28;20275;-68
2021/04/06 01:40:38;;;;;;;8.60;1.80;;;;;;;;;;5013386;28;20193;-68
2021/04/06 01:43:04;;;;;;;6.13;1.30;;;;;;;;;;5024317;28;20197;-68
2021/04/06 01:45:31;;;;;;;7.07;1.57;;;;;;;;;;5013922;28;20794;-68
2021/04/06 01:47:56;;;;;;;10.57;1.67;;;;;;;;;;5023413;28;20185;-68
2021/04/06 01:50:22;;;;;;;11.10;1.70;;;;;;;;;;5014356;28;20267;-69
2021/04/06 01:52:50;;;;;;;11.13;1.90;;;;;;;;;;5024140;28;20327;-69
2021/04/06 01:55:19;;;;;;;18.50;3.83;;;;;;;;;;5023035;28;20982;-67
2021/04/06 01:57:49;;;;;;;10.47;1.93;;;;;;;;;;5015460;28;20200;-68
2021/04/06 02:00:42;;;;;;;10.10;1.53;;;;;;;;;;5024714;28;20244;-68
2021/04/06 02:03:10;;;;;;;9.70;1.20;;;;;;;;;;5014797;28;20727;-68
2021/04/06 02:05:36;;;;;;;7.23;1.30;;;;;;;;;;5026212;28;20198;-68
2021/04/06 02:08:12;;;;;;;10.63;1.33;;;;;;;;;;5016669;28;20197;-69
2021/04/06 02:10:38;;;;;;;13.27;1.30;;;;;;;;;;5026213;28;20240;-69
2021/04/06 02:13:14;;;;;;;7.03;1.13;;;;;;;;;;5016625;28;20197;-67
2021/04/06 02:16:01;;;;;;;10.27;1.67;;;;;;;;;;5023344;28;20195;-67
2021/04/06 02:18:29;;;;;;;8.57;1.40;;;;;;;;;;5015012;28;20209;-68
2021/04/06 02:20:56;;;;;;;8.80;1.33;;;;;;;;;;5025801;28;20201;-68
2021/04/06 02:23:22;;;;;;;10.83;1.70;;;;;;;;;;5017810;28;20599;-67
2021/04/06 02:25:52;;;;;;;9.07;1.30;;;;;;;;;;5030928;28;20234;-68
2021/04/06 02:28:19;;;;;;;6.77;1.33;;;;;;;;;;5018281;28;20193;-68
2021/04/06 02:30:56;;;;;;;14.23;2.00;;;;;;;;;;5027723;28;20204;-68
2021/04/06 02:33:24;;;;;;;7.90;1.33;;;;;;;;;;5019829;28;21315;-68
2021/04/06 02:35:57;;;;;;;9.97;1.13;;;;;;;;;;5030364;28;20276;-68
2021/04/06 02:38:23;;;;;;;17.27;1.97;;;;;;;;;;5020739;28;20193;-68
2021/04/06 02:40:48;;;;;;;9.00;1.60;;;;;;;;;;5027436;28;20936;-68
2021/04/06 02:43:14;;;;;;;8.93;1.73;;;;;;;;;;5022605;28;20656;-68
2021/04/06 02:45:39;;;;;;;9.63;1.20;;;;;;;;;;5024630;28;20326;-67
2021/04/06 02:48:10;;;;;;;15.70;1.67;;;;;;;;;;5025995;28;20190;-68
2021/04/06 02:50:36;;;;;;;12.97;1.47;;;;;;;;;;5021067;28;20248;-68
2021/04/06 02:53:09;;;;;;;14.87;1.37;;;;;;;;;;5026924;28;21739;-68
2021/04/06 02:55:36;;;;;;;8.40;1.77;;;;;;;;;;5019258;28;20259;-68
2021/04/06 02:58:12;;;;;;;12.63;2.07;;;;;;;;;;5029395;28;20190;-68
2021/04/06 03:00:38;;;;;;;9.00;1.73;;;;;;;;;;5021248;28;20189;-68
2021/04/06 03:03:17;;;;;;;12.00;1.97;;;;;;;;;;5027941;28;20593;-68
2021/04/06 03:05:42;;;;;;;14.67;2.43;;;;;;;;;;5019465;28;20594;-68
2021/04/06 03:08:08;;;;;;;20.10;2.00;;;;;;;;;;5028383;28;20605;-68
2021/04/06 03:10:36;;;;;;;9.80;1.73;;;;;;;;;;5020610;28;20496;-68
2021/04/06 03:13:13;;;;;;;16.63;1.93;;;;;;;;;;5027984;28;20220;-68
2021/04/06 03:15:40;;;;;;;16.20;1.80;;;;;;;;;;5020721;28;20266;-68
2021/04/06 03:18:06;;;;;;;9.47;1.80;;;;;;;;;;5025816;28;20205;-68
2021/04/06 03:20:37;;;;;;;14.10;1.90;;;;;;;;;;5017564;28;24366;-68
2021/04/06 03:23:05;;;;;;;12.40;1.57;;;;;;;;;;5027873;28;20194;-68
2021/04/06 03:25:32;;;;;;;21.37;1.80;;;;;;;;;;5020482;28;20551;-68
2021/04/06 03:28:08;;;;;;;16.57;2.00;;;;;;;;;;5023573;28;20197;-67
2021/04/06 03:30:36;;;;;;;13.33;1.67;;;;;;;;;;5023519;28;20537;-67
2021/04/06 03:33:06;;;;;;;9.53;1.47;;;;;;;;;;5019703;28;20334;-67
2021/04/06 03:35:33;;;;;;;11.63;1.67;;;;;;;;;;5011229;28;20223;-67
2021/04/06 03:38:00;;;;;;;16.97;2.13;;;;;;;;;;5019309;28;20256;-67
2021/04/06 03:40:40;;;;;;;9.50;1.50;;;;;;;;;;5026953;28;20193;-68
2021/04/06 03:43:17;;;;;;;16.07;2.40;;;;;;;;;;5017743;28;20547;-68
2021/04/06 03:46:02;;;;;;;15.27;2.30;;;;;;;;;;5025875;28;20244;-68
2021/04/06 03:48:30;;;;;;;14.07;2.10;;;;;;;;;;5018675;28;20675;-68
2021/04/06 03:50:56;;;;;;;11.53;1.33;;;;;;;;;;5025877;28;20618;-68
2021/04/06 03:53:23;;;;;;;14.20;2.33;;;;;;;;;;5017201;28;20308;-68
2021/04/06 03:56:07;;;;;;;13.57;2.80;;;;;;;;;;5023728;28;20190;-68
2021/04/06 04:01:31;;;;;;;15.80;1.97;;;;;;;;;;5017284;28;20398;-68
2021/04/06 04:03:57;;;;;;;10.73;1.83;;;;;;;;;;5017642;28;20759;-68
2021/04/06 04:06:24;;;;;;;17.20;2.07;;;;;;;;;;5025771;28;20499;-68
2021/04/06 04:08:50;;;;;;;11.33;2.30;;;;;;;;;;5019333;28;20770;-67
2021/04/06 04:11:16;;;;;;;14.90;2.53;;;;;;;;;;5025697;28;20331;-68
2021/04/06 04:13:41;;;;;;;9.80;2.10;;;;;;;;;;5018862;28;20647;-68
2021/04/06 04:16:06;;;;;;;21.00;3.20;;;;;;;;;;5025303;28;21036;-68
2021/04/06 04:18:32;;;;;;;15.40;2.67;;;;;;;;;;5017497;28;20299;-67
2021/04/06 04:20:57;;;;;;;10.73;2.17;;;;;;;;;;5024073;28;20678;-68
2021/04/06 04:23:22;;;;;;;21.60;2.13;;;;;;;;;;5023753;28;20189;-67
2021/04/06 04:25:48;;;;;;;12.60;2.07;;;;;;;;;;5017785;28;20209;-68
2021/04/06 04:28:13;;;;;;;15.17;2.40;;;;;;;;;;5024031;28;20198;-68
2021/04/06 04:30:40;;;;;;;17.27;2.40;;;;;;;;;;5016608;28;20255;-68
2021/04/06 04:33:07;;;;;;;15.13;2.30;;;;;;;;;;5024375;28;20654;-68
2021/04/06 04:35:33;;;;;;;13.80;1.90;;;;;;;;;;5014759;28;20243;-68
2021/04/06 04:37:59;;;;;;;12.43;2.07;;;;;;;;;;5027841;28;20228;-68
2021/04/06 04:40:24;;;;;;;16.47;2.37;;;;;;;;;;5015341;28;20324;-68
2021/04/06 04:42:52;;;;;;;13.57;2.23;;;;;;;;;;5025203;28;20200;-68
2021/04/06 04:45:18;;;;;;;19.53;3.00;;;;;;;;;;5015185;28;20241;-68
2021/04/06 04:47:44;;;;;;;18.77;2.10;;;;;;;;;;5023928;28;20228;-68
2021/04/06 04:50:09;;;;;;;19.20;2.30;;;;;;;;;;5014705;28;20316;-68
2021/04/06 04:52:35;;;;;;;15.90;2.73;;;;;;;;;;5021087;28;20189;-68
2021/04/06 04:55:00;;;;;;;16.67;1.93;;;;;;;;;;5022957;28;20174;-68
2021/04/06 04:57:25;;;;;;;15.53;2.13;;;;;;;;;;5016030;28;20186;-68
2021/04/06 04:59:51;;;;;;;13.57;2.17;;;;;;;;;;5021570;28;20269;-67
2021/04/06 05:02:17;;;;;;;13.90;1.70;;;;;;;;;;5014304;28;20528;-68
2021/04/06 05:04:42;;;;;;;16.77;1.97;;;;;;;;;;5023601;28;20300;-68
2021/04/06 05:07:07;;;;;;;19.40;1.90;;;;;;;;;;5016233;28;20190;-68
2021/04/06 05:09:33;;;;;;;14.60;2.40;;;;;;;;;;5019603;28;20293;-67
2021/04/06 05:11:58;;;;;;;14.07;1.70;;;;;;;;;;5011882;28;20537;-68
2021/04/06 05:14:24;;;;;;;14.87;2.10;;;;;;;;;;5019407;28;20193;-67
2021/04/06 05:16:49;;;;;;;14.97;2.07;;;;;;;;;;5013061;28;20238;-67
2021/04/06 05:19:14;;;;;;;10.13;2.30;;;;;;;;;;5022520;28;20216;-68
2021/04/06 05:21:40;;;;;;;14.63;2.10;;;;;;;;;;5015465;28;20623;-68
2021/04/06 05:24:06;;;;;;;17.97;2.63;;;;;;;;;;5019503;28;20209;-67
2021/04/06 05:26:31;;;;;;;13.53;1.93;;;;;;;;;;5022171;28;20181;-68
2021/04/06 05:28:56;;;;;;;19.60;2.50;;;;;;;;;;5009764;28;20204;-68
2021/04/06 05:31:22;;;;;;;22.00;2.37;;;;;;;;;;5021830;28;20209;-68
2021/04/06 05:33:47;;;;;;;19.73;2.50;;;;;;;;;;5014238;28;20182;-68
2021/04/06 05:36:12;;;;;;;15.83;1.83;;;;;;;;;;5026627;28;20225;-68
2021/04/06 05:38:38;;;;;;;16.73;2.30;;;;;;;;;;5015012;28;20235;-68
2021/04/06 05:41:03;;;;;;;16.80;1.63;;;;;;;;;;5026136;28;20181;-68
2021/04/06 05:43:29;;;;;;;8.90;1.70;;;;;;;;;;5014092;28;20182;-68
2021/04/06 05:45:55;;;;;;;13.20;2.00;;;;;;;;;;5024939;28;20745;-68
2021/04/06 05:48:21;;;;;;;12.97;2.20;;;;;;;;;;5015056;28;20238;-68
2021/04/06 05:50:49;;;;;;;11.93;1.47;;;;;;;;;;5026644;28;20308;-67
2021/04/06 05:53:14;;;;;;;9.40;1.43;;;;;;;;;;5019799;28;20258;-68
2021/04/06 05:55:40;;;;;;;18.73;1.73;;;;;;;;;;5022020;28;20186;-68
2021/04/06 05:58:05;;;;;;;12.90;1.60;;;;;;;;;;5029138;28;20205;-68
2021/04/06 06:00:31;;;;;;;11.53;1.63;;;;;;;;;;5019476;28;20550;-68
2021/04/06 06:02:56;;;;;;;11.37;1.43;;;;;;;;;;4330901;28;10001298;-68
2021/04/06 06:05:22;;;;;;;8.53;2.47;;;;;;;;;;5017295;28;20581;-68
2021/04/06 06:07:47;;;;;;;9.90;2.10;;;;;;;;;;5023431;28;20182;-68
2021/04/06 06:10:29;;;;;;;16.40;2.00;;;;;;;;;;5015117;28;20193;-68
2021/04/06 06:13:12;;;;;;;8.17;1.43;;;;;;;;;;5025289;28;20197;-68
2021/04/06 06:15:38;;;;;;;15.80;2.30;;;;;;;;;;5019798;28;20265;-67
2021/04/06 06:18:05;;;;;;;9.40;1.60;;;;;;;;;;5026609;28;20632;-68
2021/04/06 06:20:31;;;;;;;8.97;1.20;;;;;;;;;;5021330;28;20649;-67
2021/04/06 06:23:16;;;;;;;12.20;1.90;;;;;;;;;;5027594;28;20198;-68
2021/04/06 06:25:41;;;;;;;10.93;1.60;;;;;;;;;;5017439;28;20879;-68
2021/04/06 06:28:11;;;;;;;9.23;1.43;;;;;;;;;;5027279;28;20246;-68
2021/04/06 06:30:38;;;;;;;13.50;1.80;;;;;;;;;;5020249;28;20237;-68
2021/04/06 06:33:15;;;;;;;15.97;2.30;;;;;;;;;;5025053;28;20212;-68
2021/04/06 06:35:43;;;;;;;14.70;2.00;;;;;;;;;;5019573;28;20542;-67
2021/04/06 06:38:16;;;;;;;10.37;1.37;;;;;;;;;;5024699;28;20200;-68
2021/04/06 06:40:43;;;;;;;9.97;1.60;;;;;;;;;;5027163;28;20182;-68
2021/04/06 06:43:16;;;;;;;8.57;1.90;;;;;;;;;;5015456;28;20181;-69
2021/04/06 06:45:43;;;;;;;14.17;2.00;;;;;;;;;;5025151;28;20213;-68
2021/04/06 06:48:09;;;;;;;10.93;1.70;;;;;;;;;;5018108;28;20194;-68
2021/04/06 06:50:47;;;;;;;18.80;2.60;;;;;;;;;;5026246;28;20233;-68
2021/04/06 06:53:13;;;;;;;11.90;1.97;;;;;;;;;;5016405;28;20247;-68
2021/04/06 06:55:39;;;;;;;11.73;2.03;;;;;;;;;;5025589;28;20185;-67
2021/04/06 06:58:05;;;;;;;8.40;1.40;;;;;;;;;;5016257;28;21411;-68
2021/04/06 07:00:31;;;;;;;9.23;1.70;;;;;;;;;;5024647;28;20232;-67
2021/04/06 07:02:57;;;;;;;13.03;1.77;;;;;;;;;;5016926;28;20308;-68
2021/04/06 07:05:27;;;;;;;12.07;1.60;;;;;;;;;;5025690;28;20210;-68
2021/04/06 07:08:32;;;;;;;11.67;1.67;;;;;;;;;;5017309;28;20238;-69
2021/04/06 07:11:02;;;;;;;8.40;1.50;;;;;;;;;;5019757;28;20665;-68
2021/04/06 07:13:32;;;;;;;12.97;2.03;;;;;;;;;;5021145;28;21308;-68
2021/04/06 07:15:59;;;;;;;7.27;1.70;;;;;;;;;;5029199;28;20177;-68
2021/04/06 07:18:26;;;;;;;12.13;1.90;;;;;;;;;;5021250;28;20221;-68
2021/04/06 07:21:00;;;;;;;13.97;1.60;;;;;;;;;;5030654;28;20260;-68
2021/04/06 07:23:53;;;;;;;13.17;2.53;;;;;;;;;;5018290;28;20193;-68
2021/04/06 07:26:20;;;;;;;6.40;1.03;;;;;;;;;;5022641;28;20210;-68
2021/04/06 07:28:46;;;;;;;8.67;1.67;;;;;;;;;;5012342;28;20599;-68
2021/04/06 07:31:14;;;;;;;11.23;1.83;;;;;;;;;;5022021;28;20197;-68
2021/04/06 07:33:40;;;;;;;9.30;1.50;;;;;;;;;;5021833;28;20220;-68
2021/04/06 07:36:08;;;;;;;9.30;1.57;;;;;;;;;;5018119;28;20657;-68
2021/04/06 07:38:59;;;;;;;11.07;2.07;;;;;;;;;;5022429;28;20190;-68
2021/04/06 07:41:27;;;;;;;7.27;1.30;;;;;;;;;;5021810;28;20289;-68
2021/04/06 07:43:54;;;;;;;7.57;1.40;;;;;;;;;;5024272;28;20189;-68
2021/04/06 07:46:35;;;;;;;10.10;1.57;;;;;;;;;;5014168;28;20665;-68
2021/04/06 07:49:08;;;;;;;9.47;1.40;;;;;;;;;;5022550;28;20193;-68
2021/04/06 07:51:40;;;;;;;9.10;1.97;;;;;;;;;;5014635;28;20222;-69
2021/04/06 07:54:11;;;;;;;11.10;1.90;;;;;;;;;;5019711;28;20181;-69
2021/04/06 07:56:42;;;;;;;12.20;1.50;;;;;;;;;;5016559;28;20261;-70
2021/04/06 07:59:08;;;;;;;4.20;1.10;;;;;;;;;;5022657;28;20217;-69
2021/04/06 08:01:34;;;;;;;10.93;2.03;;;;;;;;;;5015941;28;20281;-70
2021/04/06 08:04:03;;;;;;;12.50;2.40;;;;;;;;;;5023302;28;20217;-70
2021/04/06 08:06:44;;;;;;;8.13;1.43;;;;;;;;;;5012687;28;20197;-70
2021/04/06 08:09:44;;;;;;;9.37;1.60;;;;;;;;;;5021663;28;20181;-71
2021/04/06 08:12:33;;;;;;;12.30;1.77;;;;;;;;;;5008696;28;20259;-69
2021/04/06 08:15:07;;;;;;;8.90;1.07;;;;;;;;;;5023444;28;20206;-69
2021/04/06 08:17:32;;;;;;;9.33;1.30;;;;;;;;;;5011138;28;20254;-69
2021/04/06 08:20:18;;;;;;;13.33;1.80;;;;;;;;;;5021201;28;20185;-69
2021/04/06 08:22:43;;;;;;;6.70;1.10;;;;;;;;;;5013189;28;20275;-72
2021/04/06 08:25:18;;;;;;;13.07;1.70;;;;;;;;;;5023940;28;20292;-72
2021/04/06 08:27:44;;;;;;;4.53;1.10;;;;;;;;;;5012820;28;20244;-68
2021/04/06 08:30:19;;;;;;;4.23;0.80;;;;;;;;;;5019024;28;20186;-69
2021/04/06 08:32:56;;;;;;;2.37;0.90;;;;;;;;;;5012255;28;20195;-69
2021/04/06 08:35:44;;;;;;;3.53;0.70;;;;;;;;;;5025971;28;20299;-69
2021/04/06 08:38:22;;;;;;;4.50;1.00;;;;;;;;;;5016773;28;20221;-69
2021/04/06 08:41:05;;;;;;;9.23;1.20;;;;;;;;;;5047393;28;20608;-68
2021/04/06 08:43:38;;;;;;;6.93;1.47;;;;;;;;;;5028757;28;20234;-68
2021/04/06 08:46:09;;;;;;;6.33;1.20;;;;;;;;;;5040122;28;20680;-68
2021/04/06 08:48:48;;;;;;;4.40;1.07;;;;;;;;;;5031942;28;20209;-68
2021/04/06 08:51:24;;;;;;;9.47;1.30;;;;;;;;;;5037261;28;20602;-69
2021/04/06 08:53:57;;;;;;;9.50;1.80;;;;;;;;;;5032892;28;20196;-68
2021/04/06 08:56:25;;;;;;;7.07;1.33;;;;;;;;;;5041225;28;20262;-68
2021/04/06 08:58:51;;;;;;;5.27;1.60;;;;;;;;;;5032240;28;20185;-67
2021/04/06 09:01:19;;;;;;;9.30;1.40;;;;;;;;;;5034554;28;20205;-70
2021/04/06 09:03:45;;;;;;;11.17;1.53;;;;;;;;;;5028443;28;20295;-70
2021/04/06 09:06:12;;;;;;;9.67;1.63;;;;;;;;;;5037908;28;20188;-70
2021/04/06 09:08:56;;;;;;;9.33;1.90;;;;;;;;;;5038065;28;20556;-70
2021/04/06 09:11:25;;;;;;;11.43;1.53;;;;;;;;;;5038560;28;20188;-70
2021/04/06 09:13:52;;;;;;;8.80;1.80;;;;;;;;;;5038585;28;20200;-70
2021/04/06 09:16:25;;;;;;;8.53;1.57;;;;;;;;;;5029750;28;20192;-71
2021/04/06 09:19:07;;;;;;;9.07;1.70;;;;;;;;;;5036952;28;20239;-71
2021/04/06 09:21:34;;;;;;;9.93;1.50;;;;;;;;;;5027645;28;20216;-73
2021/04/06 09:24:03;;;;;;;9.23;1.63;;;;;;;;;;5039377;28;20230;-73
2021/04/06 09:26:29;;;;;;;5.80;1.47;;;;;;;;;;5029448;28;20227;-72
2021/04/06 09:29:05;;;;;;;11.90;1.40;;;;;;;;;;5039035;28;20615;-73
2021/04/06 09:31:33;;;;;;;2.43;0.80;;;;;;;;;;5031147;28;20234;-68
2021/04/06 09:34:06;;;;;;;6.23;0.87;;;;;;;;;;5036951;28;20186;-69
2021/04/06 09:36:32;;;;;;;10.60;1.10;;;;;;;;;;5028599;28;20558;-69
2021/04/06 09:38:58;;;;;;;5.63;0.90;;;;;;;;;;5038813;28;20230;-69
2021/04/06 09:41:29;;;;;;;8.07;1.07;;;;;;;;;;5029605;28;20289;-69
2021/04/06 09:43:54;;;;;;;8.90;1.10;;;;;;;;;;5037449;28;20177;-68
2021/04/06 09:46:20;;;;;;;4.47;1.00;;;;;;;;;;5028341;28;20190;-68
2021/04/06 09:48:55;;;;;;;4.90;1.10;;;;;;;;;;5036717;28;20244;-69
2021/04/06 09:51:21;;;;;;;7.03;1.17;;;;;;;;;;5019874;28;20185;-68
2021/04/06 09:53:47;;;;;;;6.30;1.43;;;;;;;;;;5020543;28;20579;-69
2021/04/06 09:56:13;;;;;;;9.33;1.27;;;;;;;;;;5015281;28;20895;-69
2021/04/06 09:58:39;;;;;;;5.63;1.20;;;;;;;;;;5024070;28;20284;-68
2021/04/06 10:01:19;;;;;;;6.17;1.47;;;;;;;;;;5021575;28;20198;-69
2021/04/06 10:03:46;;;;;;;7.50;1.27;;;;;;;;;;5013359;28;20229;-69
2021/04/06 10:06:13;;;;;;;8.07;2.70;;;;;;;;;;5023932;28;20267;-72
2021/04/06 10:08:38;;;;;;;9.13;1.63;;;;;;;;;;5013140;28;20809;-70
2021/04/06 10:11:04;;;;;;;4.67;1.10;;;;;;;;;;5022767;28;20193;-70
2021/04/06 10:13:30;;;;;;;5.03;1.23;;;;;;;;;;5017098;28;20649;-70
2021/04/06 10:16:07;;;;;;;11.43;1.30;;;;;;;;;;5024115;28;20189;-72
2021/04/06 10:18:40;;;;;;;5.53;1.10;;;;;;;;;;5015575;28;20775;-73
2021/04/06 10:21:26;;;;;;;5.90;1.10;;;;;;;;;;5019639;28;20267;-73
2021/04/06 10:24:04;;;;;;;7.17;1.20;;;;;;;;;;5012100;28;20201;-71
2021/04/06 10:26:29;;;;;;;3.50;1.13;;;;;;;;;;5020352;28;20605;-71
2021/04/06 10:29:10;;;;;;;6.47;1.20;;;;;;;;;;5014495;28;20190;-70
2021/04/06 10:31:51;;;;;;;7.40;1.20;;;;;;;;;;5022525;28;20196;-71
2021/04/06 10:34:18;;;;;;;7.57;1.60;;;;;;;;;;5014109;28;20668;-70
2021/04/06 10:37:19;;;;;;;10.83;1.30;;;;;;;;;;5020883;28;21311;-71
2021/04/06 10:39:45;;;;;;;11.83;1.20;;;;;;;;;;4991553;28;20772;-70
2021/04/06 10:42:13;;;;;;;8.33;2.00;;;;;;;;;;5016870;28;20205;-70
2021/04/06 10:44:40;;;;;;;4.77;1.47;;;;;;;;;;5017003;28;20196;-70
2021/04/06 10:47:05;;;;;;;18.17;3.40;;;;;;;;;;5021597;28;20197;-71
2021/04/06 10:49:31;;;;;;;7.47;1.20;;;;;;;;;;5016608;28;20252;-71
2021/04/06 10:52:01;;;;;;;5.57;1.20;;;;;;;;;;5024191;28;20211;-71
2021/04/06 10:54:26;;;;;;;5.10;0.90;;;;;;;;;;5010435;28;20192;-70
2021/04/06 10:56:57;;;;;;;6.97;0.97;;;;;;;;;;5019491;28;20194;-70
2021/04/06 10:59:37;;;;;;;3.47;0.77;;;;;;;;;;5023955;28;20245;-71
2021/04/06 11:02:03;;;;;;;2.63;0.70;;;;;;;;;;5014364;28;20656;-70
2021/04/06 11:04:30;;;;;;;7.93;0.90;;;;;;;;;;5021642;28;20212;-72
2021/04/06 11:07:04;;;;;;;3.00;0.80;;;;;;;;;;5014910;28;20194;-71
2021/04/06 11:09:35;;;;;;;4.23;0.53;;;;;;;;;;5021358;28;20188;-71
2021/04/06 11:12:02;;;;;;;5.03;0.63;;;;;;;;;;5012442;28;20297;-70
2021/04/06 11:14:28;;;;;;;4.50;0.77;;;;;;;;;;5022714;28;20185;-70
2021/04/06 11:16:54;;;;;;;2.97;0.50;;;;;;;;;;5014698;28;20189;-72
2021/04/06 11:19:25;;;;;;;2.13;0.50;;;;;;;;;;5024137;28;20216;-71
2021/04/06 11:21:53;;;;;;;3.03;0.40;;;;;;;;;;5015849;28;20193;-72
2021/04/06 11:24:21;;;;;;;3.97;0.47;;;;;;;;;;5020628;28;20198;-70
2021/04/06 11:26:48;;;;;;;3.50;0.63;;;;;;;;;;5015217;28;20205;-71
2021/04/06 11:29:15;;;;;;;4.50;0.70;;;;;;;;;;5024742;28;20552;-70
2021/04/06 11:31:42;;;;;;;1.80;0.23;;;;;;;;;;5011997;28;20347;-71
2021/04/06 11:34:08;;;;;;;2.20;0.53;;;;;;;;;;5022375;28;20193;-69
2021/04/06 11:36:35;;;;;;;1.70;0.30;;;;;;;;;;5014080;28;20587;-70
2021/04/06 11:39:04;;;;;;;1.00;0.33;;;;;;;;;;5024333;28;20321;-69
2021/04/06 11:41:29;;;;;;;2.80;0.40;;;;;;;;;;5021921;28;20248;-69
2021/04/06 11:43:55;;;;;;;7.40;1.00;;;;;;;;;;5012723;28;20193;-68
2021/04/06 11:46:20;;;;;;;6.07;0.90;;;;;;;;;;5022944;28;20185;-68
2021/04/06 11:48:46;;;;;;;3.73;0.60;;;;;;;;;;5013921;28;20248;-68
2021/04/06 11:51:13;;;;;;;4.53;2.40;;;;;;;;;;5020452;28;20213;-68
2021/04/06 11:53:39;;;;;;;4.53;0.60;;;;;;;;;;5015912;28;20207;-69
2021/04/06 11:56:05;;;;;;;3.80;0.80;;;;;;;;;;5019900;28;20197;-69
2021/04/06 11:58:30;;;;;;;7.03;0.60;;;;;;;;;;5015994;28;20922;-69
2021/04/06 12:00:56;;;;;;;6.40;0.80;;;;;;;;;;5020321;28;20221;-69
2021/04/06 12:03:21;;;;;;;9.00;1.30;;;;;;;;;;5013008;28;20679;-68
2021/04/06 12:05:46;;;;;;;5.50;0.70;;;;;;;;;;5023178;28;20193;-68
2021/04/06 12:08:12;;;;;;;2.43;0.60;;;;;;;;;;5014130;28;20502;-68
2021/04/06 12:10:37;;;;;;;3.83;0.57;;;;;;;;;;5018554;28;20185;-68
2021/04/06 12:13:03;;;;;;;5.77;0.70;;;;;;;;;;5021378;28;20278;-69
2021/04/06 12:15:29;;;;;;;6.07;1.10;;;;;;;;;;5012528;28;20644;-68
2021/04/06 12:17:55;;;;;;;4.40;1.07;;;;;;;;;;5022813;28;20193;-68
2021/04/06 12:20:20;;;;;;;6.23;0.90;;;;;;;;;;5012819;28;20268;-68
2021/04/06 12:22:46;;;;;;;3.77;0.60;;;;;;;;;;5018718;28;20847;-68
2021/04/06 12:25:12;;;;;;;4.57;0.80;;;;;;;;;;5012880;28;20202;-68
2021/04/06 12:27:37;;;;;;;2.97;0.90;;;;;;;;;;5021484;28;20198;-68
2021/04/06 12:30:04;;;;;;;3.40;0.60;;;;;;;;;;5008958;28;20899;-68
2021/04/06 12:32:30;;;;;;;4.33;1.20;;;;;;;;;;5017845;28;20652;-68
2021/04/06 12:34:55;;;;;;;5.53;0.63;;;;;;;;;;5009199;28;20193;-68
2021/04/06 12:37:21;;;;;;;4.10;0.60;;;;;;;;;;5018717;28;20272;-68
2021/04/06 12:39:47;;;;;;;4.20;0.63;;;;;;;;;;5021077;28;20334;-68
2021/04/06 12:42:13;;;;;;;2.20;0.80;;;;;;;;;;5011978;28;20197;-68
2021/04/06 12:44:38;;;;;;;2.03;0.53;;;;;;;;;;5019124;28;20208;-69
2021/04/06 12:47:04;;;;;;;5.20;1.00;;;;;;;;;;5008181;28;20200;-70
2021/04/06 12:49:29;;;;;;;8.10;0.90;;;;;;;;;;5017809;28;20292;-70
2021/04/06 12:51:55;;;;;;;3.83;0.60;;;;;;;;;;5007033;28;20272;-69
2021/04/06 12:54:20;;;;;;;8.03;0.80;;;;;;;;;;5019156;28;20732;-69
2021/04/06 12:56:45;;;;;;;5.63;0.90;;;;;;;;;;5012077;28;20236;-69
2021/04/06 12:59:11;;;;;;;6.23;0.70;;;;;;;;;;5017742;28;20551;-68
2021/04/06 13:01:36;;;;;;;6.40;1.00;;;;;;;;;;5011252;28;20662;-69
2021/04/06 13:04:02;;;;;;;5.57;0.97;;;;;;;;;;5020512;28;20217;-68
2021/04/06 13:06:27;;;;;;;6.87;1.03;;;;;;;;;;5009489;28;20703;-68
2021/04/06 13:08:53;;;;;;;5.90;0.73;;;;;;;;;;5023755;28;20592;-69
2021/04/06 13:11:18;;;;;;;3.30;0.90;;;;;;;;;;5016460;28;20251;-69
2021/04/06 13:13:43;;;;;;;3.17;1.00;;;;;;;;;;5009542;28;20288;-69
2021/04/06 13:16:09;;;;;;;10.03;1.23;;;;;;;;;;5020255;28;20308;-69
2021/04/06 13:18:34;;;;;;;6.17;1.30;;;;;;;;;;5012247;28;20234;-69
2021/04/06 13:20:59;;;;;;;4.07;0.90;;;;;;;;;;5020509;28;20253;-69
2021/04/06 13:23:25;;;;;;;5.97;0.93;;;;;;;;;;5013837;28;20543;-69
2021/04/06 13:25:50;;;;;;;7.40;1.10;;;;;;;;;;5022173;28;20193;-69
2021/04/06 13:28:16;;;;;;;2.07;0.70;;;;;;;;;;5015644;28;20197;-70
2021/04/06 13:30:41;;;;;;;9.10;1.20;;;;;;;;;;5023296;28;20185;-70
2021/04/06 13:33:07;;;;;;;7.13;0.93;;;;;;;;;;5012494;28;20546;-70
2021/04/06 13:35:32;;;;;;;3.90;0.80;;;;;;;;;;5023879;28;20189;-70
2021/04/06 13:37:58;;;;;;;5.97;1.33;;;;;;;;;;5018183;28;20396;-70
2021/04/06 13:40:24;;;;;;;7.30;1.07;;;;;;;;;;5019973;28;20226;-69
2021/04/06 13:42:51;;;;;;;4.50;1.30;;;;;;;;;;5022527;28;20185;-70
2021/04/06 13:45:20;;;;;;;3.73;0.93;;;;;;;;;;5014011;28;20755;-70
2021/04/06 13:47:46;;;;;;;5.57;1.03;;;;;;;;;;5020883;28;20531;-70
2021/04/06 13:50:13;;;;;;;2.90;0.50;;;;;;;;;;5009705;28;20197;-70
2021/04/06 13:52:38;;;;;;;3.30;0.90;;;;;;;;;;5021105;28;20193;-70
2021/04/06 13:55:06;;;;;;;7.07;0.70;;;;;;;;;;5009013;28;20280;-70
2021/04/06 13:57:32;;;;;;;3.37;0.70;;;;;;;;;;5020111;28;20510;-70
2021/04/06 13:59:58;;;;;;;4.50;0.87;;;;;;;;;;5012949;28;20308;-70
2021/04/06 14:02:23;;;;;;;7.07;0.50;;;;;;;;;;5023571;28;20196;-70
2021/04/06 14:04:49;;;;;;;3.57;1.17;;;;;;;;;;5014027;28;20201;-69
2021/04/06 14:07:14;;;;;;;3.90;0.87;;;;;;;;;;5022883;28;20606;-70
2021/04/06 14:09:39;;;;;;;8.73;1.23;;;;;;;;;;5012166;28;20280;-69
2021/04/06 14:12:06;;;;;;;5.23;1.03;;;;;;;;;;5015902;28;20259;-69
2021/04/06 14:14:31;;;;;;;5.40;0.90;;;;;;;;;;5018537;28;20585;-69
2021/04/06 14:16:57;;;;;;;7.53;0.70;;;;;;;;;;5015525;28;20284;-70
2021/04/06 14:19:22;;;;;;;2.23;0.53;;;;;;;;;;5021040;28;20324;-70
2021/04/06 14:21:48;;;;;;;6.83;0.90;;;;;;;;;;5013572;28;20186;-70
2021/04/06 14:24:14;;;;;;;5.60;1.00;;;;;;;;;;5021440;28;20275;-70
2021/04/06 14:26:39;;;;;;;4.67;0.70;;;;;;;;;;5012968;28;20255;-70
2021/04/06 14:29:06;;;;;;;3.57;0.83;;;;;;;;;;5022062;28;20596;-71
2021/04/06 14:31:32;;;;;;;3.60;0.80;;;;;;;;;;5017026;28;20267;-70
2021/04/06 14:33:58;;;;;;;7.53;0.83;;;;;;;;;;5022433;28;20221;-70
2021/04/06 14:36:24;;;;;;;2.80;0.80;;;;;;;;;;5010706;28;20288;-71
2021/04/06 14:38:51;;;;;;;4.33;0.67;;;;;;;;;;5022209;28;20239;-69
2021/04/06 14:41:16;;;;;;;3.67;0.80;;;;;;;;;;5020350;28;20204;-70
2021/04/06 14:43:42;;;;;;;7.23;0.90;;;;;;;;;;5013955;28;20198;-70
2021/04/06 14:46:10;;;;;;;4.97;0.80;;;;;;;;;;5022611;28;20213;-70
2021/04/06 14:48:38;;;;;;;5.53;0.67;;;;;;;;;;5013721;28;20708;-70
2021/04/06 14:51:06;;;;;;;4.87;0.90;;;;;;;;;;5019656;28;20278;-71